• Join FlightAware (Why Join?)
  • Login
  • US Flag 
10:48AM EDT


 

Airport Tracker/Info


-or-


 

Live Flight TrackerFlight Track Log ✈ AMF1324 ✈ 19-Sep-2013 ✈ KBUF - KBGM

Flight Track Log - Related Links

Times and Time Zones

All times are in EDT time to prevent confusion due to time zone crossing. See the AMF1324 flight status page for this flight to view local times or setup timezone preferences in your user account.

Time Position Orientation Groundspeed Altitude Reporting Facility
EDT Latitude Longitude Course Direction KTS MPH feet Rate Location/Type
06:37AM 42.9167 -78.7500 129° Southeast 173 199 1,600  Level Buffalo TRACON
06:39AM 42.8578 -78.6508 129° Southeast 181 208 4,800 1,380 Climbing Cleveland Center
06:40AM 42.8358 -78.5978 119° Southeast 185 213 5,800 1,080 Climbing Cleveland Center
06:41AM 42.8356 -78.5233 90° East 195 224 7,000 1,140 Climbing Cleveland Center
06:42AM 42.8331 -78.4353 92° East 198 228 8,200 1,080 Climbing Cleveland Center
06:43AM 42.8156 -78.3639 108° East 205 236 9,300 1,140 Climbing Cleveland Center
06:44AM 42.7972 -78.2867 108° East 207 238 10,600 1,140 Climbing Cleveland Center
06:45AM 42.7781 -78.2183 111° Southeast 195 224 11,700 960 Climbing Cleveland Center
06:46AM 42.7567 -78.1475 112° Southeast 201 231 12,600 600 Climbing Cleveland Center
06:47AM 42.7319 -78.0736 114° Southeast 216 249 13,000 180 Climbing Cleveland Center
06:48AM 42.7033 -77.9911 115° Southeast 241 277 13,000  Level Cleveland Center
06:49AM 42.6736 -77.9083 116° Southeast 245 282 13,000  Level Cleveland Center
06:50AM 42.6433 -77.8269 117° Southeast 245 282 13,000  Level Cleveland Center
06:51AM 42.6114 -77.7331 115° Southeast 243 280 13,000  Level Cleveland Center
06:52AM 42.5847 -77.6500 114° Southeast 242 278 13,000  Level Cleveland Center
06:53AM 42.5586 -77.5642 112° Southeast 245 282 13,000  Level Cleveland Center
06:54AM 42.5347 -77.4783 111° Southeast 245 282 13,000  Level Cleveland Center
06:55AM 42.5142 -77.4000 110° East 233 268 13,000  Level Cleveland Center
06:56AM 42.4894 -77.3167 112° Southeast 237 273 13,000  Level Cleveland Center
06:57AM 42.4606 -77.2158 111° Southeast 240 276 13,000  Level Cleveland Center
06:58AM 42.4378 -77.1317 110° East 240 276 13,000  Level Cleveland Center
06:59AM 42.4144 -77.0481 111° Southeast 239 275 13,000  Level Cleveland Center
07:00AM 42.3925 -76.9642 109° East 238 274 13,000 -420 Level Cleveland Center
07:01AM 42.3692 -76.8772 110° East 243 280 12,200 -900 Descending Cleveland Center
07:02AM 42.3406 -76.7822 112° Southeast 266 306 11,200 -1,140 Descending Cleveland Center
07:03AM 42.3147 -76.6839 110° East 272 313 9,900 -1,140 Descending Cleveland Center
07:04AM 42.2917 -76.5833 107° East 277 319 8,900 -480 Descending Cleveland Center
07:05AM 42.3144 -76.4714 75° East 263 303 9,000 -540 Climbing Cleveland Center
07:06AM 42.3303 -76.3772 77° East 258 297 7,800 -1,320 Descending Cleveland Center
07:07AM 42.3456 -76.2764 78° East 265 305 6,400 -1,200 Descending Cleveland Center
07:08AM 42.3625 -76.1736 77° East 274 315 5,400 -720 Descending Cleveland Center
07:09AM 42.3778 -76.0864 77° East 261 300 5,000 -240 Descending Cleveland Center
07:10AM 42.3989 -76.0100 69° East 233 268 4,900 -180 Descending New York Center
07:11AM 42.3892 -76.0936 261° West 46 53 4,700 -420 Descending New York Center
07:12AM 42.3414 -76.0897 177° South 98 113 4,100 -600 Descending New York Center
07:13AM 42.3011 -76.0611 152° Southeast 144 166 3,600 -600 Descending New York Center
07:14AM 42.2689 -76.0333 147° Southeast 149 171 2,900 -660 Descending New York Center
07:15AM 42.2428 -76.0144 152° Southeast 149 171 2,300 -600 Descending New York Center